sensor_id;sensor_type;location;lat;lon;timestamp;temperature;humidity
62991;DHT22;49084;48.204;16.202;2023-07-13T00:00:24;18.80;99.90
62991;DHT22;49084;48.204;16.202;2023-07-13T00:02:50;18.80;99.90
62991;DHT22;49084;48.204;16.202;2023-07-13T00:05:20;18.80;99.90
62991;DHT22;49084;48.204;16.202;2023-07-13T00:07:45;18.80;99.90
62991;DHT22;49084;48.204;16.202;2023-07-13T00:10:12;18.70;99.90
62991;DHT22;49084;48.204;16.202;2023-07-13T00:12:38;18.70;99.90
62991;DHT22;49084;48.204;16.202;2023-07-13T00:15:17;18.70;99.90
62991;DHT22;49084;48.204;16.202;2023-07-13T00:17:48;18.70;99.90
62991;DHT22;49084;48.204;16.202;2023-07-13T00:20:14;18.70;99.90
62991;DHT22;49084;48.204;16.202;2023-07-13T00:22:40;18.60;99.90
62991;DHT22;49084;48.204;16.202;2023-07-13T00:25:05;18.60;99.90
62991;DHT22;49084;48.204;16.202;2023-07-13T00:27:31;18.60;99.90
62991;DHT22;49084;48.204;16.202;2023-07-13T00:29:58;18.50;99.90
62991;DHT22;49084;48.204;16.202;2023-07-13T00:32:24;18.60;99.90
62991;DHT22;49084;48.204;16.202;2023-07-13T00:34:52;18.60;99.90
62991;DHT22;49084;48.204;16.202;2023-07-13T00:37:18;18.70;99.90
62991;DHT22;49084;48.204;16.202;2023-07-13T00:39:44;18.70;99.90
62991;DHT22;49084;48.204;16.202;2023-07-13T00:42:10;18.60;99.90
62991;DHT22;49084;48.204;16.202;2023-07-13T00:44:36;18.70;99.90
62991;DHT22;49084;48.204;16.202;2023-07-13T00:47:02;18.70;99.90
62991;DHT22;49084;48.204;16.202;2023-07-13T00:49:30;18.70;99.90
62991;DHT22;49084;48.204;16.202;2023-07-13T00:52:06;18.60;99.90
62991;DHT22;49084;48.204;16.202;2023-07-13T00:54:38;18.70;99.90
62991;DHT22;49084;48.204;16.202;2023-07-13T00:57:08;18.60;99.90
62991;DHT22;49084;48.204;16.202;2023-07-13T00:59:35;18.60;99.90
62991;DHT22;49084;48.204;16.202;2023-07-13T01:02:02;18.60;99.90
62991;DHT22;49084;48.204;16.202;2023-07-13T01:04:28;18.60;99.90
62991;DHT22;49084;48.204;16.202;2023-07-13T01:06:54;18.60;99.90
62991;DHT22;49084;48.204;16.202;2023-07-13T01:09:20;18.60;99.90
62991;DHT22;49084;48.204;16.202;2023-07-13T01:11:46;18.60;99.90
62991;DHT22;49084;48.204;16.202;2023-07-13T01:14:12;18.60;99.90
62991;DHT22;49084;48.204;16.202;2023-07-13T01:16:40;18.70;99.90
62991;DHT22;49084;48.204;16.202;2023-07-13T01:19:41;18.80;99.90
62991;DHT22;49084;48.204;16.202;2023-07-13T01:22:18;18.90;99.90
62991;DHT22;49084;48.204;16.202;2023-07-13T01:24:46;18.90;99.90
62991;DHT22;49084;48.204;16.202;2023-07-13T01:27:16;18.90;99.90
62991;DHT22;49084;48.204;16.202;2023-07-13T01:29:43;18.90;99.90
62991;DHT22;49084;48.204;16.202;2023-07-13T01:32:11;19.00;99.90
62991;DHT22;49084;48.204;16.202;2023-07-13T01:34:37;19.10;99.90
62991;DHT22;49084;48.204;16.202;2023-07-13T01:37:06;19.20;99.90
62991;DHT22;49084;48.204;16.202;2023-07-13T01:39:32;19.20;99.90
62991;DHT22;49084;48.204;16.202;2023-07-13T01:41:58;19.20;99.90
62991;DHT22;49084;48.204;16.202;2023-07-13T01:44:24;19.20;99.90
62991;DHT22;49084;48.204;16.202;2023-07-13T01:46:50;19.20;99.90
62991;DHT22;49084;48.204;16.202;2023-07-13T01:49:15;19.30;99.90
62991;DHT22;49084;48.204;16.202;2023-07-13T01:51:41;19.30;99.90
62991;DHT22;49084;48.204;16.202;2023-07-13T01:54:07;19.50;99.90
62991;DHT22;49084;48.204;16.202;2023-07-13T01:56:32;19.70;99.90
62991;DHT22;49084;48.204;16.202;2023-07-13T01:58:58;20.00;99.90
62991;DHT22;49084;48.204;16.202;2023-07-13T02:01:24;20.10;99.90
62991;DHT22;49084;48.204;16.202;2023-07-13T02:03:49;20.50;99.90
62991;DHT22;49084;48.204;16.202;2023-07-13T02:06:15;20.60;99.90
62991;DHT22;49084;48.204;16.202;2023-07-13T02:08:41;20.70;99.90
62991;DHT22;49084;48.204;16.202;2023-07-13T02:11:08;20.80;99.90
62991;DHT22;49084;48.204;16.202;2023-07-13T02:13:34;20.90;99.90
62991;DHT22;49084;48.204;16.202;2023-07-13T02:16:00;20.90;99.90
62991;DHT22;49084;48.204;16.202;2023-07-13T02:18:26;20.90;99.90
62991;DHT22;49084;48.204;16.202;2023-07-13T02:20:51;20.90;99.90
62991;DHT22;49084;48.204;16.202;2023-07-13T02:23:17;21.00;99.90
62991;DHT22;49084;48.204;16.202;2023-07-13T02:25:43;21.00;99.90
62991;DHT22;49084;48.204;16.202;2023-07-13T02:28:09;21.00;99.90
62991;DHT22;49084;48.204;16.202;2023-07-13T02:30:35;21.00;99.90
62991;DHT22;49084;48.204;16.202;2023-07-13T02:33:00;20.90;99.90
62991;DHT22;49084;48.204;16.202;2023-07-13T02:35:26;21.00;99.90
62991;DHT22;49084;48.204;16.202;2023-07-13T02:37:52;20.90;99.90
62991;DHT22;49084;48.204;16.202;2023-07-13T02:40:17;21.00;99.90
62991;DHT22;49084;48.204;16.202;2023-07-13T02:42:43;21.00;99.90
62991;DHT22;49084;48.204;16.202;2023-07-13T02:45:09;21.00;99.90
62991;DHT22;49084;48.204;16.202;2023-07-13T02:47:35;21.10;99.90
62991;DHT22;49084;48.204;16.202;2023-07-13T02:50:02;21.10;99.90
62991;DHT22;49084;48.204;16.202;2023-07-13T02:52:27;21.10;99.90
62991;DHT22;49084;48.204;16.202;2023-07-13T02:54:53;21.10;99.90
62991;DHT22;49084;48.204;16.202;2023-07-13T02:57:19;21.10;99.90
62991;DHT22;49084;48.204;16.202;2023-07-13T02:59:44;21.00;99.90
62991;DHT22;49084;48.204;16.202;2023-07-13T03:02:10;21.00;99.90
62991;DHT22;49084;48.204;16.202;2023-07-13T03:04:36;20.90;99.90
62991;DHT22;49084;48.204;16.202;2023-07-13T03:07:03;20.80;99.90
62991;DHT22;49084;48.204;16.202;2023-07-13T03:09:28;20.70;99.90
62991;DHT22;49084;48.204;16.202;2023-07-13T03:11:54;20.60;99.90
62991;DHT22;49084;48.204;16.202;2023-07-13T03:14:21;20.50;99.90
62991;DHT22;49084;48.204;16.202;2023-07-13T03:16:47;20.40;99.90
62991;DHT22;49084;48.204;16.202;2023-07-13T03:19:12;20.20;99.90
62991;DHT22;49084;48.204;16.202;2023-07-13T03:21:38;20.00;99.90
62991;DHT22;49084;48.204;16.202;2023-07-13T03:24:04;19.90;99.90
62991;DHT22;49084;48.204;16.202;2023-07-13T03:26:30;19.70;99.90
62991;DHT22;49084;48.204;16.202;2023-07-13T03:28:55;19.60;99.90
62991;DHT22;49084;48.204;16.202;2023-07-13T03:31:24;19.40;99.90
62991;DHT22;49084;48.204;16.202;2023-07-13T03:33:50;19.30;99.90
62991;DHT22;49084;48.204;16.202;2023-07-13T03:36:21;19.10;99.90
62991;DHT22;49084;48.204;16.202;2023-07-13T03:38:53;19.00;99.90
62991;DHT22;49084;48.204;16.202;2023-07-13T03:41:19;18.90;99.90
62991;DHT22;49084;48.204;16.202;2023-07-13T03:43:45;18.80;99.90
62991;DHT22;49084;48.204;16.202;2023-07-13T03:46:14;18.80;99.90
62991;DHT22;49084;48.204;16.202;2023-07-13T03:48:41;18.70;99.90
62991;DHT22;49084;48.204;16.202;2023-07-13T03:51:09;18.70;99.90
62991;DHT22;49084;48.204;16.202;2023-07-13T03:53:39;18.70;99.90
62991;DHT22;49084;48.204;16.202;2023-07-13T03:56:06;18.60;99.90
62991;DHT22;49084;48.204;16.202;2023-07-13T03:58:33;18.60;99.90
62991;DHT22;49084;48.204;16.202;2023-07-13T04:01:00;18.60;99.90
62991;DHT22;49084;48.204;16.202;2023-07-13T04:03:27;18.60;99.90
62991;DHT22;49084;48.204;16.202;2023-07-13T04:05:55;18.60;99.90
62991;DHT22;49084;48.204;16.202;2023-07-13T04:08:28;18.60;99.90
62991;DHT22;49084;48.204;16.202;2023-07-13T04:10:54;18.50;99.90
62991;DHT22;49084;48.204;16.202;2023-07-13T04:13:20;18.40;99.90
62991;DHT22;49084;48.204;16.202;2023-07-13T04:15:46;18.40;99.90
62991;DHT22;49084;48.204;16.202;2023-07-13T04:18:11;18.40;99.90
62991;DHT22;49084;48.204;16.202;2023-07-13T04:20:37;18.40;99.90
62991;DHT22;49084;48.204;16.202;2023-07-13T04:23:03;18.50;99.90
62991;DHT22;49084;48.204;16.202;2023-07-13T04:25:28;18.50;99.90
62991;DHT22;49084;48.204;16.202;2023-07-13T04:27:54;18.50;99.90
62991;DHT22;49084;48.204;16.202;2023-07-13T04:30:20;18.60;99.90
62991;DHT22;49084;48.204;16.202;2023-07-13T04:32:46;18.60;99.90
62991;DHT22;49084;48.204;16.202;2023-07-13T04:35:12;18.60;99.90
62991;DHT22;49084;48.204;16.202;2023-07-13T04:37:39;18.50;99.90
62991;DHT22;49084;48.204;16.202;2023-07-13T04:40:06;18.60;99.90
62991;DHT22;49084;48.204;16.202;2023-07-13T04:42:31;18.50;99.90
62991;DHT22;49084;48.204;16.202;2023-07-13T04:44:57;18.50;99.90
62991;DHT22;49084;48.204;16.202;2023-07-13T04:47:23;18.50;99.90
62991;DHT22;49084;48.204;16.202;2023-07-13T04:49:49;18.50;99.90
62991;DHT22;49084;48.204;16.202;2023-07-13T04:52:14;18.50;99.90
62991;DHT22;49084;48.204;16.202;2023-07-13T04:54:40;18.50;99.90
62991;DHT22;49084;48.204;16.202;2023-07-13T04:57:06;18.50;99.90
62991;DHT22;49084;48.204;16.202;2023-07-13T04:59:33;18.50;99.90
62991;DHT22;49084;48.204;16.202;2023-07-13T05:01:58;18.50;99.90
62991;DHT22;49084;48.204;16.202;2023-07-13T05:04:24;18.60;99.90
62991;DHT22;49084;48.204;16.202;2023-07-13T05:06:50;18.50;99.90
62991;DHT22;49084;48.204;16.202;2023-07-13T05:09:15;18.60;99.90
62991;DHT22;49084;48.204;16.202;2023-07-13T05:11:43;18.50;99.90
62991;DHT22;49084;48.204;16.202;2023-07-13T05:14:09;18.50;99.90
62991;DHT22;49084;48.204;16.202;2023-07-13T05:16:37;18.60;99.90
62991;DHT22;49084;48.204;16.202;2023-07-13T05:19:03;18.70;99.90
62991;DHT22;49084;48.204;16.202;2023-07-13T05:21:29;18.70;99.90
62991;DHT22;49084;48.204;16.202;2023-07-13T05:23:54;18.90;99.90
62991;DHT22;49084;48.204;16.202;2023-07-13T05:26:20;19.00;99.90
62991;DHT22;49084;48.204;16.202;2023-07-13T05:28:47;19.10;99.90
62991;DHT22;49084;48.204;16.202;2023-07-13T05:31:13;19.20;99.90
62991;DHT22;49084;48.204;16.202;2023-07-13T05:33:39;19.40;99.90
62991;DHT22;49084;48.204;16.202;2023-07-13T05:36:05;19.50;99.90
62991;DHT22;49084;48.204;16.202;2023-07-13T05:38:31;19.50;99.90
62991;DHT22;49084;48.204;16.202;2023-07-13T05:40:57;19.50;99.90
62991;DHT22;49084;48.204;16.202;2023-07-13T05:43:23;19.40;99.90
62991;DHT22;49084;48.204;16.202;2023-07-13T05:45:49;19.40;99.90
62991;DHT22;49084;48.204;16.202;2023-07-13T05:48:16;19.40;99.90
62991;DHT22;49084;48.204;16.202;2023-07-13T05:50:42;19.40;99.90
62991;DHT22;49084;48.204;16.202;2023-07-13T05:53:07;19.30;99.90
62991;DHT22;49084;48.204;16.202;2023-07-13T05:55:33;19.20;99.90
62991;DHT22;49084;48.204;16.202;2023-07-13T05:58:00;19.20;99.90
62991;DHT22;49084;48.204;16.202;2023-07-13T06:00:26;19.20;99.90
62991;DHT22;49084;48.204;16.202;2023-07-13T06:02:52;19.30;99.90
62991;DHT22;49084;48.204;16.202;2023-07-13T06:05:18;19.30;99.90
62991;DHT22;49084;48.204;16.202;2023-07-13T06:07:43;19.30;99.90
62991;DHT22;49084;48.204;16.202;2023-07-13T06:10:09;19.30;99.90
62991;DHT22;49084;48.204;16.202;2023-07-13T06:12:35;19.30;99.90
62991;DHT22;49084;48.204;16.202;2023-07-13T06:15:01;19.30;99.90
62991;DHT22;49084;48.204;16.202;2023-07-13T06:17:26;19.40;99.90
62991;DHT22;49084;48.204;16.202;2023-07-13T06:19:52;19.40;99.90
62991;DHT22;49084;48.204;16.202;2023-07-13T06:22:18;19.40;99.90
62991;DHT22;49084;48.204;16.202;2023-07-13T06:24:43;19.40;99.90
62991;DHT22;49084;48.204;16.202;2023-07-13T06:27:09;19.40;99.90
62991;DHT22;49084;48.204;16.202;2023-07-13T06:29:35;19.50;99.90
62991;DHT22;49084;48.204;16.202;2023-07-13T06:32:00;19.50;99.90
62991;DHT22;49084;48.204;16.202;2023-07-13T06:34:26;19.60;99.90
62991;DHT22;49084;48.204;16.202;2023-07-13T06:36:52;19.70;99.90
62991;DHT22;49084;48.204;16.202;2023-07-13T06:39:17;19.70;99.90
62991;DHT22;49084;48.204;16.202;2023-07-13T06:41:43;19.80;99.90
62991;DHT22;49084;48.204;16.202;2023-07-13T06:44:09;19.80;99.90
62991;DHT22;49084;48.204;16.202;2023-07-13T06:46:34;19.80;99.90
62991;DHT22;49084;48.204;16.202;2023-07-13T06:49:00;19.80;99.90
62991;DHT22;49084;48.204;16.202;2023-07-13T06:51:26;19.80;99.90
62991;DHT22;49084;48.204;16.202;2023-07-13T06:53:51;19.80;99.90
62991;DHT22;49084;48.204;16.202;2023-07-13T06:56:17;19.70;99.90
62991;DHT22;49084;48.204;16.202;2023-07-13T06:58:43;19.80;99.90
62991;DHT22;49084;48.204;16.202;2023-07-13T07:01:09;19.70;99.90
62991;DHT22;49084;48.204;16.202;2023-07-13T07:03:35;19.70;99.90
62991;DHT22;49084;48.204;16.202;2023-07-13T07:06:12;19.80;99.90
62991;DHT22;49084;48.204;16.202;2023-07-13T07:08:38;20.00;99.90
62991;DHT22;49084;48.204;16.202;2023-07-13T07:11:05;20.10;99.90
62991;DHT22;49084;48.204;16.202;2023-07-13T07:13:31;20.20;99.90
62991;DHT22;49084;48.204;16.202;2023-07-13T07:15:56;20.20;99.90
62991;DHT22;49084;48.204;16.202;2023-07-13T07:18:22;20.20;99.90
62991;DHT22;49084;48.204;16.202;2023-07-13T07:20:49;20.30;99.90
62991;DHT22;49084;48.204;16.202;2023-07-13T07:23:14;20.40;99.90
62991;DHT22;49084;48.204;16.202;2023-07-13T07:25:40;20.40;99.90
62991;DHT22;49084;48.204;16.202;2023-07-13T07:28:08;20.50;99.90
62991;DHT22;49084;48.204;16.202;2023-07-13T07:30:34;20.60;99.90
62991;DHT22;49084;48.204;16.202;2023-07-13T07:33:00;20.60;99.90
62991;DHT22;49084;48.204;16.202;2023-07-13T07:35:26;20.60;99.90
62991;DHT22;49084;48.204;16.202;2023-07-13T07:37:52;20.70;99.90
62991;DHT22;49084;48.204;16.202;2023-07-13T07:40:19;20.70;99.90
62991;DHT22;49084;48.204;16.202;2023-07-13T07:42:44;20.70;99.90
62991;DHT22;49084;48.204;16.202;2023-07-13T07:45:10;20.80;99.90
62991;DHT22;49084;48.204;16.202;2023-07-13T07:47:37;20.80;99.90
62991;DHT22;49084;48.204;16.202;2023-07-13T07:50:03;20.90;99.90
62991;DHT22;49084;48.204;16.202;2023-07-13T07:52:29;21.10;99.90
62991;DHT22;49084;48.204;16.202;2023-07-13T07:54:55;21.30;99.90
62991;DHT22;49084;48.204;16.202;2023-07-13T07:57:20;21.40;99.90
62991;DHT22;49084;48.204;16.202;2023-07-13T07:59:46;21.60;99.90
62991;DHT22;49084;48.204;16.202;2023-07-13T08:02:12;22.00;99.90
62991;DHT22;49084;48.204;16.202;2023-07-13T08:04:37;22.60;99.90
62991;DHT22;49084;48.204;16.202;2023-07-13T08:07:03;23.10;99.90
62991;DHT22;49084;48.204;16.202;2023-07-13T08:09:29;23.50;99.90
62991;DHT22;49084;48.204;16.202;2023-07-13T08:11:55;24.10;99.90
62991;DHT22;49084;48.204;16.202;2023-07-13T08:14:20;24.80;99.90
62991;DHT22;49084;48.204;16.202;2023-07-13T08:16:46;25.50;99.90
62991;DHT22;49084;48.204;16.202;2023-07-13T08:19:12;25.40;99.90
62991;DHT22;49084;48.204;16.202;2023-07-13T08:21:38;25.00;99.90
62991;DHT22;49084;48.204;16.202;2023-07-13T08:24:03;24.60;99.90
62991;DHT22;49084;48.204;16.202;2023-07-13T08:26:29;24.40;99.90
62991;DHT22;49084;48.204;16.202;2023-07-13T08:28:55;24.30;99.90
62991;DHT22;49084;48.204;16.202;2023-07-13T08:31:20;24.20;99.90
62991;DHT22;49084;48.204;16.202;2023-07-13T08:33:46;24.10;99.90
62991;DHT22;49084;48.204;16.202;2023-07-13T08:36:12;24.20;99.90
62991;DHT22;49084;48.204;16.202;2023-07-13T08:38:37;24.50;99.90
62991;DHT22;49084;48.204;16.202;2023-07-13T08:41:14;25.00;99.90
62991;DHT22;49084;48.204;16.202;2023-07-13T08:43:41;25.60;99.90
62991;DHT22;49084;48.204;16.202;2023-07-13T08:46:18;26.10;99.90
62991;DHT22;49084;48.204;16.202;2023-07-13T08:48:46;26.30;99.90
62991;DHT22;49084;48.204;16.202;2023-07-13T08:51:31;26.50;99.90
62991;DHT22;49084;48.204;16.202;2023-07-13T08:54:02;27.00;99.90
62991;DHT22;49084;48.204;16.202;2023-07-13T08:56:29;27.20;99.90
62991;DHT22;49084;48.204;16.202;2023-07-13T08:59:26;27.60;99.90
62991;DHT22;49084;48.204;16.202;2023-07-13T09:04:46;27.00;99.20
62991;DHT22;49084;48.204;16.202;2023-07-13T09:07:20;26.80;99.40
62991;DHT22;49084;48.204;16.202;2023-07-13T09:13:11;27.70;98.40
62991;DHT22;49084;48.204;16.202;2023-07-13T09:15:41;27.80;97.40
62991;DHT22;49084;48.204;16.202;2023-07-13T09:20:48;28.50;96.70
62991;DHT22;49084;48.204;16.202;2023-07-13T09:23:17;29.10;95.90
62991;DHT22;49084;48.204;16.202;2023-07-13T09:25:47;29.00;94.40
62991;DHT22;49084;48.204;16.202;2023-07-13T09:28:22;28.40;94.90
62991;DHT22;49084;48.204;16.202;2023-07-13T09:31:26;28.10;94.60
62991;DHT22;49084;48.204;16.202;2023-07-13T09:33:54;28.50;93.70
62991;DHT22;49084;48.204;16.202;2023-07-13T09:36:22;28.70;93.20
62991;DHT22;49084;48.204;16.202;2023-07-13T09:38:56;28.90;92.80
62991;DHT22;49084;48.204;16.202;2023-07-13T09:44:31;28.80;91.30
62991;DHT22;49084;48.204;16.202;2023-07-13T09:46:59;28.80;90.90
62991;DHT22;49084;48.204;16.202;2023-07-13T09:49:33;28.70;90.00
62991;DHT22;49084;48.204;16.202;2023-07-13T09:52:01;28.70;90.00
62991;DHT22;49084;48.204;16.202;2023-07-13T09:54:28;28.80;89.50
62991;DHT22;49084;48.204;16.202;2023-07-13T09:56:55;28.50;88.50
62991;DHT22;49084;48.204;16.202;2023-07-13T09:59:24;28.20;88.60
62991;DHT22;49084;48.204;16.202;2023-07-13T10:01:50;28.00;90.00
62991;DHT22;49084;48.204;16.202;2023-07-13T10:04:27;28.20;90.40
62991;DHT22;49084;48.204;16.202;2023-07-13T10:07:05;28.00;90.80
62991;DHT22;49084;48.204;16.202;2023-07-13T10:09:31;28.00;90.70
62991;DHT22;49084;48.204;16.202;2023-07-13T10:11:57;28.20;90.40
62991;DHT22;49084;48.204;16.202;2023-07-13T10:14:23;27.90;89.90
62991;DHT22;49084;48.204;16.202;2023-07-13T10:16:56;27.50;90.70
62991;DHT22;49084;48.204;16.202;2023-07-13T10:19:31;27.00;91.30
62991;DHT22;49084;48.204;16.202;2023-07-13T10:22:25;26.70;92.10
62991;DHT22;49084;48.204;16.202;2023-07-13T10:24:53;26.90;92.10
62991;DHT22;49084;48.204;16.202;2023-07-13T10:27:27;27.10;91.40
62991;DHT22;49084;48.204;16.202;2023-07-13T10:30:15;27.10;91.30
62991;DHT22;49084;48.204;16.202;2023-07-13T10:32:43;27.40;91.30
62991;DHT22;49084;48.204;16.202;2023-07-13T10:35:12;27.40;91.40
62991;DHT22;49084;48.204;16.202;2023-07-13T10:37:51;27.00;91.00
62991;DHT22;49084;48.204;16.202;2023-07-13T10:40:40;27.00;91.40
62991;DHT22;49084;48.204;16.202;2023-07-13T10:43:09;27.10;91.10
62991;DHT22;49084;48.204;16.202;2023-07-13T10:45:37;27.50;90.10
62991;DHT22;49084;48.204;16.202;2023-07-13T10:48:04;27.50;88.80
62991;DHT22;49084;48.204;16.202;2023-07-13T10:50:31;27.60;88.40
62991;DHT22;49084;48.204;16.202;2023-07-13T10:56:05;27.50;88.10
62991;DHT22;49084;48.204;16.202;2023-07-13T10:58:39;27.60;87.90
62991;DHT22;49084;48.204;16.202;2023-07-13T11:03:34;27.20;88.40
62991;DHT22;49084;48.204;16.202;2023-07-13T11:14:00;28.10;85.50
62991;DHT22;49084;48.204;16.202;2023-07-13T11:16:43;28.60;84.60
62991;DHT22;49084;48.204;16.202;2023-07-13T11:25:01;29.60;80.30
62991;DHT22;49084;48.204;16.202;2023-07-13T11:30:41;30.40;76.20
62991;DHT22;49084;48.204;16.202;2023-07-13T11:36:06;29.70;76.60
62991;DHT22;49084;48.204;16.202;2023-07-13T11:38:40;29.70;76.90
62991;DHT22;49084;48.204;16.202;2023-07-13T11:41:19;30.00;76.20
62991;DHT22;49084;48.204;16.202;2023-07-13T11:43:50;30.30;75.60
62991;DHT22;49084;48.204;16.202;2023-07-13T11:46:23;30.50;73.50
62991;DHT22;49084;48.204;16.202;2023-07-13T11:48:50;30.60;72.40
62991;DHT22;49084;48.204;16.202;2023-07-13T11:51:29;30.90;71.60
62991;DHT22;49084;48.204;16.202;2023-07-13T11:53:58;31.30;68.30
62991;DHT22;49084;48.204;16.202;2023-07-13T11:56:25;31.00;66.90
62991;DHT22;49084;48.204;16.202;2023-07-13T11:58:53;31.20;65.90
62991;DHT22;49084;48.204;16.202;2023-07-13T12:01:25;31.80;65.30
62991;DHT22;49084;48.204;16.202;2023-07-13T12:03:53;31.90;65.20
62991;DHT22;49084;48.204;16.202;2023-07-13T12:08:50;32.40;64.00
62991;DHT22;49084;48.204;16.202;2023-07-13T12:11:18;32.20;63.50
62991;DHT22;49084;48.204;16.202;2023-07-13T12:13:44;31.50;64.00
62991;DHT22;49084;48.204;16.202;2023-07-13T12:16:20;31.40;64.80
62991;DHT22;49084;48.204;16.202;2023-07-13T12:18:48;31.30;65.70
62991;DHT22;49084;48.204;16.202;2023-07-13T12:21:17;31.00;65.30
62991;DHT22;49084;48.204;16.202;2023-07-13T12:23:47;31.00;65.30
62991;DHT22;49084;48.204;16.202;2023-07-13T12:26:13;31.20;66.10
62991;DHT22;49084;48.204;16.202;2023-07-13T12:28:51;30.40;64.20
62991;DHT22;49084;48.204;16.202;2023-07-13T12:34:05;30.00;67.80
62991;DHT22;49084;48.204;16.202;2023-07-13T12:36:35;29.80;67.30
62991;DHT22;49084;48.204;16.202;2023-07-13T12:39:10;29.80;68.70
62991;DHT22;49084;48.204;16.202;2023-07-13T12:41:37;30.80;67.90
62991;DHT22;49084;48.204;16.202;2023-07-13T12:44:03;31.70;64.30
62991;DHT22;49084;48.204;16.202;2023-07-13T12:46:29;32.00;64.30
62991;DHT22;49084;48.204;16.202;2023-07-13T12:48:57;32.40;63.50
62991;DHT22;49084;48.204;16.202;2023-07-13T12:51:25;32.40;63.40
62991;DHT22;49084;48.204;16.202;2023-07-13T12:53:57;31.80;63.90
62991;DHT22;49084;48.204;16.202;2023-07-13T12:56:27;31.00;64.70
62991;DHT22;49084;48.204;16.202;2023-07-13T12:58:58;30.50;64.10
62991;DHT22;49084;48.204;16.202;2023-07-13T13:01:30;29.70;65.30
62991;DHT22;49084;48.204;16.202;2023-07-13T13:04:01;29.20;66.20
62991;DHT22;49084;48.204;16.202;2023-07-13T13:06:31;28.90;67.10
62991;DHT22;49084;48.204;16.202;2023-07-13T13:08:59;29.00;68.10
62991;DHT22;49084;48.204;16.202;2023-07-13T13:11:26;29.00;66.70
62991;DHT22;49084;48.204;16.202;2023-07-13T13:13:53;28.90;66.00
62991;DHT22;49084;48.204;16.202;2023-07-13T13:18:55;29.10;67.40
62991;DHT22;49084;48.204;16.202;2023-07-13T13:21:25;29.00;67.30
62991;DHT22;49084;48.204;16.202;2023-07-13T13:23:51;29.20;67.20
62991;DHT22;49084;48.204;16.202;2023-07-13T13:26:19;29.20;67.40
62991;DHT22;49084;48.204;16.202;2023-07-13T13:28:46;29.60;66.60
62991;DHT22;49084;48.204;16.202;2023-07-13T13:31:13;29.40;66.10
62991;DHT22;49084;48.204;16.202;2023-07-13T13:33:45;29.20;67.00
62991;DHT22;49084;48.204;16.202;2023-07-13T13:36:22;29.40;66.90
62991;DHT22;49084;48.204;16.202;2023-07-13T13:38:50;28.90;65.80
62991;DHT22;49084;48.204;16.202;2023-07-13T13:41:16;28.70;67.20
62991;DHT22;49084;48.204;16.202;2023-07-13T13:43:43;28.90;66.50
62991;DHT22;49084;48.204;16.202;2023-07-13T13:46:18;28.90;66.60
62991;DHT22;49084;48.204;16.202;2023-07-13T13:48:44;28.70;66.40
62991;DHT22;49084;48.204;16.202;2023-07-13T13:51:21;28.70;67.80
62991;DHT22;49084;48.204;16.202;2023-07-13T13:53:49;29.00;65.70
62991;DHT22;49084;48.204;16.202;2023-07-13T13:56:17;29.10;66.50
62991;DHT22;49084;48.204;16.202;2023-07-13T13:58:43;29.30;65.50
62991;DHT22;49084;48.204;16.202;2023-07-13T14:01:21;29.00;65.30
62991;DHT22;49084;48.204;16.202;2023-07-13T14:03:50;28.80;66.20
62991;DHT22;49084;48.204;16.202;2023-07-13T14:06:17;29.10;66.20
62991;DHT22;49084;48.204;16.202;2023-07-13T14:08:43;29.10;66.20
62991;DHT22;49084;48.204;16.202;2023-07-13T14:11:16;28.90;66.80
62991;DHT22;49084;48.204;16.202;2023-07-13T14:13:45;28.60;66.40
62991;DHT22;49084;48.204;16.202;2023-07-13T14:16:17;28.20;67.10
62991;DHT22;49084;48.204;16.202;2023-07-13T14:18:47;28.10;68.10
62991;DHT22;49084;48.204;16.202;2023-07-13T14:21:22;28.10;68.00
62991;DHT22;49084;48.204;16.202;2023-07-13T14:23:48;27.80;68.20
62991;DHT22;49084;48.204;16.202;2023-07-13T14:26:18;27.80;67.90
62991;DHT22;49084;48.204;16.202;2023-07-13T14:28:46;27.50;68.60
62991;DHT22;49084;48.204;16.202;2023-07-13T14:31:14;27.10;69.30
62991;DHT22;49084;48.204;16.202;2023-07-13T14:33:40;27.20;70.20
62991;DHT22;49084;48.204;16.202;2023-07-13T14:36:25;27.40;69.00
62991;DHT22;49084;48.204;16.202;2023-07-13T14:38:52;27.50;69.10
62991;DHT22;49084;48.204;16.202;2023-07-13T14:41:19;27.70;69.10
62991;DHT22;49084;48.204;16.202;2023-07-13T14:43:46;28.30;68.70
62991;DHT22;49084;48.204;16.202;2023-07-13T14:46:34;28.50;68.50
62991;DHT22;49084;48.204;16.202;2023-07-13T14:51:51;28.10;69.50
62991;DHT22;49084;48.204;16.202;2023-07-13T14:54:17;27.50;70.10
62991;DHT22;49084;48.204;16.202;2023-07-13T14:56:43;27.30;71.00
62991;DHT22;49084;48.204;16.202;2023-07-13T14:59:09;27.10;71.90
62991;DHT22;49084;48.204;16.202;2023-07-13T15:01:37;27.00;73.90
62991;DHT22;49084;48.204;16.202;2023-07-13T15:04:04;26.80;71.80
62991;DHT22;49084;48.204;16.202;2023-07-13T15:06:30;26.50;73.20
62991;DHT22;49084;48.204;16.202;2023-07-13T15:08:57;26.60;73.60
62991;DHT22;49084;48.204;16.202;2023-07-13T15:11:23;26.70;73.30
62991;DHT22;49084;48.204;16.202;2023-07-13T15:13:49;26.80;73.80
62991;DHT22;49084;48.204;16.202;2023-07-13T15:16:23;26.70;72.80
62991;DHT22;49084;48.204;16.202;2023-07-13T15:18:49;26.80;73.70
62991;DHT22;49084;48.204;16.202;2023-07-13T15:21:23;26.70;74.30
62991;DHT22;49084;48.204;16.202;2023-07-13T15:23:50;26.60;74.00
62991;DHT22;49084;48.204;16.202;2023-07-13T15:26:17;26.50;74.80
62991;DHT22;49084;48.204;16.202;2023-07-13T15:28:44;26.30;75.20
62991;DHT22;49084;48.204;16.202;2023-07-13T15:31:37;26.00;75.20
62991;DHT22;49084;48.204;16.202;2023-07-13T15:34:11;25.60;76.20
62991;DHT22;49084;48.204;16.202;2023-07-13T15:36:37;25.50;77.20
62991;DHT22;49084;48.204;16.202;2023-07-13T15:39:03;25.30;76.90
62991;DHT22;49084;48.204;16.202;2023-07-13T15:41:29;25.20;77.90
62991;DHT22;49084;48.204;16.202;2023-07-13T15:43:56;25.10;78.30
62991;DHT22;49084;48.204;16.202;2023-07-13T15:46:24;25.00;78.80
62991;DHT22;49084;48.204;16.202;2023-07-13T15:48:51;24.90;79.10
62991;DHT22;49084;48.204;16.202;2023-07-13T15:53:46;24.70;80.50
62991;DHT22;49084;48.204;16.202;2023-07-13T15:56:26;24.60;81.00
62991;DHT22;49084;48.204;16.202;2023-07-13T15:58:53;24.60;81.40
62991;DHT22;49084;48.204;16.202;2023-07-13T16:01:19;24.40;82.20
62991;DHT22;49084;48.204;16.202;2023-07-13T16:03:46;24.30;83.00
62991;DHT22;49084;48.204;16.202;2023-07-13T16:08:44;24.10;87.40
62991;DHT22;49084;48.204;16.202;2023-07-13T16:11:16;24.10;90.40
62991;DHT22;49084;48.204;16.202;2023-07-13T16:13:44;23.90;90.70